OBBI/BAH METAR and TAF weather

Enter ICAO airport designator
Station Type Date Time Source
OBBI METAR 2020/04/04 04:30 UTC NOAA

OBBI 040430Z 36009KT CAVOK 24/18 Q1014 NOSIG


Station Type Date Time Source
OBBI Decoded METAR 2020/04/04 04:30 UTC NOAA

Bahrain International Airport , Bahrain (OBBI) 26-16N 050-39E 2M
Apr 04, 2020 - 12:30 AM EDT / 2020.04.04 0430 UTC
Wind: from the N (360 degrees) at 10 MPH (9 KT):0
Visibility: greater than 7 mile(s):0
Temperature: 75 F (24 C)
Dew Point: 64 F (18 C)
Relative Humidity: 69%
Pressure (altimeter): 29.94 in. Hg (1014 hPa)
ob: OBBI 040430Z 36009KT CAVOK 24/18 Q1014 NOSIG
cycle: 4

Station Type Date Time Source
OBBI TAF 2020/04/04 06:13 UTC NOAA

TAF OBBI 040500Z 0406/0512 36012KT CAVOK

Example: see airport list